Accueil
METAR-TAF:

METAR-TAF

Aéroports :

Tarbes Lourdes, France

Aéroport de Tarbes-Lourdes-Pyrénées

latitude: 43-11N, longitude: 000-00W, altitude: 379 m

Observation

Le bulletin a été fait il y a 17 minutes, à 01:30 UTC
Vent 2 kt de direction variable
Température 12°C
Humidité 94%
Pression 1022 hPa
Visibilité 10 km ou plus
pas de nuages en-dessous de 1500 mètres et pas de cumulonimbus.

METAR: LFBT 170130Z AUTO VRB02KT CAVOK 12/11 Q1022 NOSIG

Heure: 03:47 (01:47 UTC)

Prévision

Le bulletin a été fait il y a 2 heures et 47 minutes, à 23:00 UTC
Prévision valable du 17 à 00 UTC au 17 à 24 UTC
Vent 2 kt de direction variable
Visibilité 10 km ou plus
pas de nuages en-dessous de 1500 mètres et pas de cumulonimbus.

TAF: LFBT 162300Z 1700/1724 VRB02KT CAVOK

Observations et prévisions météorologiques de plus de 4000 aéroports (messages METAR et TAF).

Les stations disponibles sont représentées par des disques jaunes et rouges sur la carte.

Passer la souris dessus pour voir le nom de la station.

Cliquer dessus pour voir les observations et prévisions météorologiques.

Pour changer de carte: cliquez sur les boutons verts avec une croix noire pour zoomer, sur le bouton vert avec un tiret pour effectuer un zoom arrière, ou sur les flèches vertes pour les cartes adjacentes.


METAR-TAF: